Time;durP1;ratioP1;P1;durP2;ratioP2;P2;SDS_P1;SDS_P2;PMS_P1;PMS_P2;Temp;Humidity;BMP_temperature;BMP_pressure;BME280_temperature;BME280_humidity;BME280_pressure;Samples;Min_cycle;Max_cycle;Signal;HPM_P1;HPM_P2
2022/07/27 00:09:50;;;;;;;8.63;5.03;;;;;;;18.73;100.00;99691.75;31779067;27;20062;-71
2022/07/27 00:24:52;;;;;;;7.97;5.13;;;;;;;18.72;100.00;99690.25;31744840;27;20519;-72
2022/07/27 00:39:55;;;;;;;6.85;4.45;;;;;;;18.52;100.00;99681.25;31750849;27;20058;-71
2022/07/27 00:54:58;;;;;;;10.10;5.50;;;;;;;18.39;100.00;99673.34;31755912;27;20055;-71
2022/07/27 01:10:00;;;;;;;9.20;5.40;;;;;;;18.31;100.00;99686.75;31800137;27;20064;-70
2022/07/27 01:25:03;;;;;;;10.15;6.05;;;;;;;18.24;100.00;99694.63;31803450;27;20047;-71
2022/07/27 01:40:05;;;;;;;12.35;5.85;;;;;;;18.14;100.00;99687.78;31777488;27;20411;-72
2022/07/27 01:55:09;;;;;;;9.68;6.13;;;;;;;18.10;100.00;99678.97;31781570;27;20489;-71
2022/07/27 02:10:11;;;;;;;;;;;;;;;17.96;100.00;99700.50;31782627;27;20055;-71
2022/07/27 02:25:15;;;;;;;8.68;6.25;;;;;;;18.06;100.00;99701.91;31780008;27;19923;-72
2022/07/27 02:40:18;;;;;;;10.35;6.13;;;;;;;18.15;100.00;99730.50;31797609;27;20058;-72
2022/07/27 02:55:20;;;;;;;14.07;5.93;;;;;;;18.41;100.00;99747.84;31756875;27;20044;-71
2022/07/27 03:10:22;;;;;;;10.35;6.05;;;;;;;18.48;100.00;99746.66;31761361;27;20508;-70
2022/07/27 03:25:24;;;;;;;12.10;6.55;;;;;;;18.65;100.00;99748.41;31764837;27;20063;-71
2022/07/27 03:40:28;;;;;;;11.25;6.57;;;;;;;19.04;100.00;99753.56;31784893;27;20043;-72
2022/07/27 03:55:30;;;;;;;;;;;;;;;19.33;100.00;99769.88;31758285;27;20444;-72
2022/07/27 04:10:32;;;;;;;12.02;7.10;;;;;;;19.79;100.00;99774.56;31788945;27;19933;-71
2022/07/27 04:25:34;;;;;;;11.27;7.57;;;;;;;20.42;99.61;99772.47;31761151;27;20055;-72
2022/07/27 04:40:38;;;;;;;11.82;7.10;;;;;;;20.92;97.79;99782.19;31762026;27;20078;-71
2022/07/27 04:55:45;;;;;;;13.75;8.57;;;;;;;21.45;94.72;99781.34;31783124;27;20035;-71
2022/07/27 05:10:47;;;;;;;14.25;7.60;;;;;;;22.14;93.45;99783.59;31766041;27;20055;-72
2022/07/27 05:25:49;;;;;;;11.57;7.50;;;;;;;22.67;92.13;99783.19;31756145;27;20079;-73
2022/07/27 05:40:52;;;;;;;14.02;7.53;;;;;;;23.52;87.97;99802.88;31780056;27;20468;-71
2022/07/27 05:55:54;;;;;;;12.27;8.53;;;;;;;24.02;84.67;99811.56;31788472;27;20580;-72
2022/07/27 06:11:00;;;;;;;17.02;8.05;;;;;;;24.70;81.17;99808.84;31791224;27;20299;-72
2022/07/27 06:26:02;;;;;;;12.17;7.50;;;;;;;25.18;78.61;99802.44;31779923;27;20047;-71
2022/07/27 06:41:04;;;;;;;8.73;6.30;;;;;;;26.08;73.12;99801.78;31803359;27;20063;-72
2022/07/27 06:56:07;;;;;;;8.52;4.97;;;;;;;26.40;69.86;99808.06;31801966;27;20507;-73
2022/07/27 07:11:10;;;;;;;6.75;4.97;;;;;;;26.84;63.28;99811.97;31792107;27;20058;-73
2022/07/27 07:26:12;;;;;;;8.18;4.80;;;;;;;27.61;61.71;99821.22;31804955;27;20053;-75
2022/07/27 07:41:14;;;;;;;7.63;4.03;;;;;;;28.09;57.16;99826.09;31811623;27;20055;-76
2022/07/27 07:56:16;;;;;;;5.20;3.67;;;;;;;28.29;56.43;99827.38;31793222;27;20047;-75
2022/07/27 08:11:18;;;;;;;6.65;3.75;;;;;;;29.32;52.98;99833.81;31807354;27;20063;-78
2022/07/27 08:26:20;;;;;;;5.00;3.65;;;;;;;29.89;48.95;99827.97;31819685;27;20046;-76
2022/07/27 08:41:25;;;;;;;3.97;2.83;;;;;;;30.76;46.32;99821.88;31802722;27;20062;-75
2022/07/27 08:56:27;;;;;;;3.70;3.17;;;;;;;30.84;45.12;99828.22;31770892;27;20046;-77
2022/07/27 09:11:31;;;;;;;4.95;3.50;;;;;;;30.99;44.27;99818.97;31795686;27;20058;-77
2022/07/27 09:26:33;;;;;;;6.10;4.35;;;;;;;29.05;47.97;99824.25;31798383;27;20051;-74
2022/07/27 09:41:44;;;;;;;5.18;3.97;;;;;;;28.77;50.55;99825.78;31823921;27;20071;-75
2022/07/27 09:56:58;;;;;;;5.13;4.10;;;;;;;31.86;41.52;99814.56;31799204;27;20055;-75
2022/07/27 10:12:03;;;;;;;4.70;3.40;;;;;;;32.69;40.05;99812.97;31804895;27;20502;-77
2022/07/27 10:27:27;;;;;;;4.65;3.70;;;;;;;29.22;47.88;99830.09;31776192;27;20079;-76
2022/07/27 10:42:29;;;;;;;6.20;4.15;;;;;;;31.71;43.14;99817.47;31767066;27;20047;-75
2022/07/27 10:57:33;;;;;;;6.15;3.60;;;;;;;32.78;38.75;99820.03;31776257;27;20065;-76
2022/07/27 11:12:36;;;;;;;4.55;3.35;;;;;;;31.48;41.65;99812.75;31810289;27;20053;-76
2022/07/27 11:27:47;;;;;;;3.38;3.03;;;;;;;32.38;37.62;99814.63;31796290;27;20052;-74
2022/07/27 11:42:49;;;;;;;4.57;3.60;;;;;;;31.57;40.19;99807.84;31797716;27;20496;-89
2022/07/27 11:57:51;;;;;;;4.57;3.38;;;;;;;30.10;41.56;99803.34;31817600;27;20049;-76
2022/07/27 12:12:53;;;;;;;9.45;7.25;;;;;;;29.44;43.26;99795.88;31790947;27;20059;-75
2022/07/27 12:27:59;;;;;;;6.75;5.00;;;;;;;29.13;44.69;99797.81;31810228;27;20066;-79
2022/07/27 12:43:04;;;;;;;5.20;4.55;;;;;;;28.76;45.25;99790.78;31807050;27;20054;-77
2022/07/27 12:58:12;;;;;;;85.00;53.55;;;;;;;28.39;47.06;99777.38;31814844;27;20105;-78
2022/07/27 13:13:14;;;;;;;5.10;3.60;;;;;;;28.61;46.23;99771.16;31766953;27;20055;-78
2022/07/27 13:28:18;;;;;;;4.55;3.47;;;;;;;28.67;44.52;99760.56;31794277;27;20140;-82
2022/07/27 13:43:20;;;;;;;3.47;2.60;;;;;;;28.84;43.78;99752.47;31787532;28;20081;-82
2022/07/27 13:58:22;;;;;;;3.55;3.20;;;;;;;28.61;44.94;99754.41;31804486;27;20049;-82
2022/07/27 14:13:25;;;;;;;4.28;3.63;;;;;;;28.21;45.86;99758.84;31802821;27;20047;-81
2022/07/27 14:28:28;;;;;;;5.15;3.30;;;;;;;28.33;46.16;99765.63;31811455;27;20041;-81
2022/07/27 14:43:32;;;;;;;3.45;2.88;;;;;;;28.55;45.01;99764.25;31821437;27;20050;-79
2022/07/27 14:58:34;;;;;;;9.13;7.10;;;;;;;28.25;44.28;99759.25;31806968;27;20040;-83
2022/07/27 15:13:37;;;;;;;4.57;3.20;;;;;;;28.19;44.78;99774.06;31858146;27;20423;-81
2022/07/27 15:28:40;;;;;;;4.13;2.78;;;;;;;28.01;45.45;99775.06;31845114;27;20046;-82
2022/07/27 15:43:47;;;;;;;4.75;2.40;;;;;;;27.84;45.37;99777.56;31835927;27;20079;-86
2022/07/27 15:58:50;;;;;;;4.00;2.72;;;;;;;27.71;45.82;99797.13;31807277;27;20043;-83
2022/07/27 16:13:52;;;;;;;7.75;4.22;;;;;;;27.45;48.86;99798.72;31803941;27;20058;-80
2022/07/27 16:29:04;;;;;;;5.63;3.63;;;;;;;27.18;52.55;99811.25;31787144;27;20062;-80
2022/07/27 16:44:07;;;;;;;6.90;4.38;;;;;;;26.93;53.52;99821.19;31813126;27;20122;-80
2022/07/27 16:59:09;;;;;;;6.18;4.10;;;;;;;26.69;55.60;99824.97;31762227;27;20059;-82
2022/07/27 17:14:15;;;;;;;7.45;4.35;;;;;;;26.41;56.21;99834.59;31802636;27;20411;-80
2022/07/27 17:29:17;;;;;;;15.85;10.65;;;;;;;26.09;57.74;99842.97;31822413;28;20393;-81
2022/07/27 17:44:19;;;;;;;7.00;4.20;;;;;;;25.78;58.93;99858.38;31806778;27;20057;-80
2022/07/27 17:59:21;;;;;;;12.80;6.80;;;;;;;25.53;59.51;99875.69;31806971;27;20053;-80
2022/07/27 18:15:45;;;;;;;5.38;4.18;;;;;;;25.27;60.40;99879.84;31837561;27;20140;-81
2022/07/27 18:30:03;;;;;;;19.27;7.83;;;;;;;25.11;60.71;99898.22;31836329;27;20051;-80
2022/07/27 18:45:06;;;;;;;6.75;4.25;;;;;;;24.97;60.68;99909.75;31801151;27;20047;-81
2022/07/27 19:00:10;;;;;;;6.20;4.47;;;;;;;24.87;60.74;99936.31;31817396;27;20134;-81
2022/07/27 19:15:12;;;;;;;6.18;4.20;;;;;;;24.74;60.28;99943.28;31787007;27;20511;-80
2022/07/27 19:30:14;;;;;;;7.17;4.80;;;;;;;24.58;61.18;99952.50;31785251;27;20053;-79
2022/07/27 19:45:17;;;;;;;5.65;3.60;;;;;;;24.51;60.92;99953.09;31825850;27;20052;-81
2022/07/27 20:00:21;;;;;;;7.75;4.43;;;;;;;24.55;61.11;99956.34;31824116;27;21842;-79
2022/07/27 20:15:23;;;;;;;;;;;;;;;24.39;62.94;99957.22;31790165;27;20050;-80
2022/07/27 20:30:25;;;;;;;11.55;6.00;;;;;;;24.21;63.07;99969.69;31822227;27;20314;-80
2022/07/27 20:45:27;;;;;;;;;;;;;;;23.80;66.58;99973.25;31804898;27;20149;-82
2022/07/27 21:00:30;;;;;;;10.70;4.93;;;;;;;23.69;65.28;99978.84;31859025;27;19926;-80
2022/07/27 21:15:33;;;;;;;8.73;4.37;;;;;;;23.56;66.44;99972.38;31795015;27;20111;-81
2022/07/27 21:30:35;;;;;;;9.88;5.00;;;;;;;23.55;66.42;99976.41;31818637;27;20051;-81
2022/07/27 21:45:37;;;;;;;7.70;5.80;;;;;;;23.40;67.26;99973.91;31818056;27;20449;-81
2022/07/27 22:00:48;;;;;;;8.65;5.90;;;;;;;23.21;67.78;99992.34;31796712;27;20082;-81
2022/07/27 22:15:50;;;;;;;7.53;5.60;;;;;;;23.04;68.61;99990.41;31815474;27;20577;-80
2022/07/27 22:30:53;;;;;;;9.40;6.13;;;;;;;23.04;68.85;100006.25;31792977;27;20052;-79
2022/07/27 22:46:15;;;;;;;7.60;5.10;;;;;;;22.95;69.46;100012.03;31810327;27;20047;-80
2022/07/27 23:01:22;;;;;;;8.27;5.03;;;;;;;22.69;70.04;100032.41;31806331;27;20055;-81
2022/07/27 23:16:44;;;;;;;6.05;4.65;;;;;;;22.45;70.56;100027.38;31795761;27;20107;-81
2022/07/27 23:31:46;;;;;;;6.93;5.03;;;;;;;22.37;70.66;100039.47;31821036;27;20137;-80
2022/07/27 23:46:49;;;;;;;6.37;4.83;;;;;;;22.31;70.81;100035.91;31813876;27;20126;-80
